Time;durP1;ratioP1;P1;durP2;ratioP2;P2;SDS_P1;SDS_P2;PMS_P1;PMS_P2;Temp;Humidity;BMP_temperature;BMP_pressure;BME280_temperature;BME280_humidity;BME280_pressure;Samples;Min_cycle;Max_cycle;Signal;HPM_P1;HPM_P2
2022/01/14 00:01:34;;;;;;;;;;;4.40;99.90;;;;;;5031817;28;21186;-69
2022/01/14 00:03:59;;;;;;;;;;;4.40;99.90;;;;;;5031505;28;20011;-70
2022/01/14 00:06:25;;;;;;;;;;;4.30;99.90;;;;;;5029443;28;19920;-69
2022/01/14 00:08:50;;;;;;;;;;;4.30;99.90;;;;;;5029428;28;20402;-70
2022/01/14 00:11:18;;;;;;;;;;;4.30;99.90;;;;;;5027168;28;19936;-69
2022/01/14 00:16:11;;;;;;;;;;;4.40;99.90;;;;;;5026733;28;19909;-70
2022/01/14 00:18:37;;;;;;;;;;;4.30;99.90;;;;;;5027822;28;19913;-72
2022/01/14 00:21:02;;;;;;;;;;;4.30;99.90;;;;;;5026843;28;19933;-71
2022/01/14 00:23:33;;;;;;;;;;;4.30;99.90;;;;;;5007824;28;20008;-68
2022/01/14 00:31:43;;;;;;;;;;;4.30;99.90;;;;;;5026360;28;20165;-70
2022/01/14 00:34:12;;;;;;;;;;;4.20;99.90;;;;;;5020540;28;20231;-71
2022/01/14 00:36:38;;;;;;;;;;;4.30;99.90;;;;;;5025960;28;19935;-70
2022/01/14 00:39:04;;;;;;;;;;;4.20;99.90;;;;;;5007945;28;22024;-70
2022/01/14 00:41:30;;;;;;;;;;;4.30;99.90;;;;;;5026385;28;20127;-71
2022/01/14 00:44:01;;;;;;;;;;;4.30;99.90;;;;;;5027732;28;20353;-69
2022/01/14 00:46:27;;;;;;;;;;;4.20;99.90;;;;;;5026973;28;20003;-69
2022/01/14 00:48:53;;;;;;;;;;;4.20;99.90;;;;;;5028581;28;20003;-73
2022/01/14 00:51:18;;;;;;;;;;;4.20;99.90;;;;;;5025517;28;20429;-69
2022/01/14 00:53:44;;;;;;;;;;;4.20;99.90;;;;;;5026669;28;19913;-71
2022/01/14 00:56:25;;;;;;;;;;;4.20;99.90;;;;;;5027142;28;19932;-69
2022/01/14 01:01:35;;;;;;;;;;;4.40;99.90;;;;;;5018275;28;19919;-72
2022/01/14 01:04:01;;;;;;;;;;;4.30;99.90;;;;;;5025772;28;19913;-73
2022/01/14 01:06:26;;;;;;;;;;;4.30;99.90;;;;;;5026282;28;20233;-70
2022/01/14 01:08:53;;;;;;;;;;;4.30;99.90;;;;;;5026443;28;19967;-70
2022/01/14 01:11:24;;;;;;;;;;;4.30;99.90;;;;;;5025652;28;19927;-73
2022/01/14 01:14:00;;;;;;;;;;;4.30;99.90;;;;;;5026162;28;19940;-69
2022/01/14 01:16:26;;;;;;;;;;;4.20;99.90;;;;;;5028394;28;19939;-71
2022/01/14 01:18:51;;;;;;;;;;;4.20;99.90;;;;;;5008202;28;19913;-70
2022/01/14 01:21:16;;;;;;;;;;;4.20;99.90;;;;;;5026240;28;19917;-70
2022/01/14 01:23:42;;;;;;;;;;;4.20;99.90;;;;;;5025199;28;20000;-70
2022/01/14 01:26:16;;;;;;;;;;;4.10;99.90;;;;;;5025636;28;19913;-70
2022/01/14 01:28:58;;;;;;;;;;;4.10;99.90;;;;;;5018511;28;20035;-69
2022/01/14 01:31:36;;;;;;;;;;;4.20;99.90;;;;;;5005048;28;19959;-69
2022/01/14 01:34:21;;;;;;;;;;;4.20;99.90;;;;;;5004491;28;20019;-71
2022/01/14 01:36:49;;;;;;;;;;;4.20;99.90;;;;;;5005330;28;20045;-71
2022/01/14 01:39:18;;;;;;;;;;;4.10;99.90;;;;;;5006571;28;19916;-71
2022/01/14 01:41:45;;;;;;;;;;;4.20;99.90;;;;;;5004548;28;20239;-67
2022/01/14 01:44:11;;;;;;;;;;;4.30;99.90;;;;;;5006582;28;20165;-68
2022/01/14 01:46:39;;;;;;;;;;;4.30;99.90;;;;;;5004614;28;19922;-70
2022/01/14 01:49:05;;;;;;;;;;;4.40;99.90;;;;;;5005528;28;20206;-69
2022/01/14 01:51:30;;;;;;;;;;;4.40;99.90;;;;;;5004941;28;19929;-69
2022/01/14 01:53:56;;;;;;;;;;;4.40;99.90;;;;;;5006139;28;19918;-67
2022/01/14 01:56:22;;;;;;;;;;;4.30;99.90;;;;;;5005463;28;19918;-69
2022/01/14 01:58:47;;;;;;;;;;;4.20;99.90;;;;;;5004818;28;19974;-68
2022/01/14 02:01:13;;;;;;;;;;;4.20;99.90;;;;;;5006232;28;20150;-69
2022/01/14 02:03:39;;;;;;;;;;;4.00;99.90;;;;;;5005926;28;20110;-71
2022/01/14 02:06:05;;;;;;;;;;;4.00;99.90;;;;;;5003522;28;19925;-70
2022/01/14 02:08:30;;;;;;;;;;;4.10;99.90;;;;;;5006091;28;19913;-72
2022/01/14 02:10:56;;;;;;;;;;;4.10;99.90;;;;;;5005506;28;19917;-70
2022/01/14 02:13:22;;;;;;;;;;;4.10;99.90;;;;;;5006133;28;19913;-70
2022/01/14 02:16:01;;;;;;;;;;;4.00;99.90;;;;;;5004840;28;20347;-70
2022/01/14 02:18:33;;;;;;;;;;;4.00;99.90;;;;;;5007854;28;19928;-70
2022/01/14 02:23:47;;;;;;;;;;;3.90;99.90;;;;;;5005749;28;19932;-73
2022/01/14 02:26:16;;;;;;;;;;;4.00;99.90;;;;;;5006347;28;19932;-70
2022/01/14 02:28:42;;;;;;;;;;;4.00;99.90;;;;;;5008747;28;19923;-74
2022/01/14 02:31:08;;;;;;;;;;;4.10;99.90;;;;;;5033387;28;20190;-71
2022/01/14 02:33:33;;;;;;;;;;;4.20;99.90;;;;;;5026173;28;19919;-68
2022/01/14 02:35:59;;;;;;;;;;;4.10;99.90;;;;;;5025432;28;19923;-74
2022/01/14 02:38:25;;;;;;;;;;;4.10;99.90;;;;;;5025663;28;19959;-70
2022/01/14 02:40:50;;;;;;;;;;;4.10;99.90;;;;;;5025309;28;20363;-72
2022/01/14 02:43:17;;;;;;;;;;;4.10;99.90;;;;;;5025430;28;19917;-70
2022/01/14 02:45:46;;;;;;;;;;;4.00;99.90;;;;;;5025403;28;20000;-70
2022/01/14 02:48:12;;;;;;;;;;;4.00;99.90;;;;;;5025656;28;19913;-68
2022/01/14 02:50:52;;;;;;;;;;;4.00;99.90;;;;;;5007242;28;19936;-74
2022/01/14 02:53:27;;;;;;;;;;;3.90;99.90;;;;;;5024375;28;20378;-70
2022/01/14 02:55:53;;;;;;;;;;;3.90;99.90;;;;;;5008030;28;20302;-72
2022/01/14 02:58:19;;;;;;;;;;;4.00;99.90;;;;;;5023780;28;19913;-70
2022/01/14 03:00:45;;;;;;;;;;;4.00;99.90;;;;;;5025515;28;19917;-69
2022/01/14 03:03:11;;;;;;;;;;;4.00;99.90;;;;;;5007328;28;20331;-70
2022/01/14 03:05:36;;;;;;;;;;;4.00;99.90;;;;;;5024904;28;20466;-70
2022/01/14 03:08:02;;;;;;;;;;;3.90;99.90;;;;;;5025890;28;19999;-69
2022/01/14 03:10:27;;;;;;;;;;;3.90;99.90;;;;;;5025297;28;20374;-71
2022/01/14 03:12:53;;;;;;;;;;;3.90;99.90;;;;;;5025667;28;20012;-69
2022/01/14 03:15:19;;;;;;;;;;;4.00;99.90;;;;;;5026958;28;19920;-69
2022/01/14 03:17:45;;;;;;;;;;;4.00;99.90;;;;;;5024113;28;19940;-74
2022/01/14 03:20:34;;;;;;;;;;;4.00;99.90;;;;;;5024847;28;20322;-71
2022/01/14 03:23:03;;;;;;;;;;;4.10;99.90;;;;;;5025552;28;19913;-70
2022/01/14 03:28:12;;;;;;;;;;;4.10;99.90;;;;;;5029101;28;19924;-69
2022/01/14 03:30:38;;;;;;;;;;;4.10;99.90;;;;;;5042678;28;19916;-69
2022/01/14 03:33:03;;;;;;;;;;;4.10;99.90;;;;;;5024090;28;19966;-69
2022/01/14 03:35:28;;;;;;;;;;;4.00;99.90;;;;;;5030969;28;20306;-71
2022/01/14 03:37:55;;;;;;;;;;;4.00;99.90;;;;;;5032024;28;19929;-69
2022/01/14 03:40:21;;;;;;;;;;;4.00;99.90;;;;;;5021424;28;19916;-74
2022/01/14 03:42:46;;;;;;;;;;;4.00;99.90;;;;;;5012935;28;19917;-76
2022/01/14 03:45:12;;;;;;;;;;;4.00;99.90;;;;;;5037466;28;19917;-71
2022/01/14 03:47:37;;;;;;;;;;;3.90;99.90;;;;;;5031859;28;19924;-70
2022/01/14 03:50:03;;;;;;;;;;;4.00;99.90;;;;;;5030860;28;20229;-70
2022/01/14 03:52:30;;;;;;;;;;;4.00;99.90;;;;;;5031181;28;19985;-70
2022/01/14 03:54:56;;;;;;;;;;;4.00;99.90;;;;;;5031051;28;20076;-70
2022/01/14 03:57:21;;;;;;;;;;;4.10;99.90;;;;;;5013036;28;19924;-69
2022/01/14 03:59:47;;;;;;;;;;;4.20;99.90;;;;;;5028318;28;19924;-70
2022/01/14 04:02:12;;;;;;;;;;;4.10;99.90;;;;;;5011698;28;19963;-71
2022/01/14 04:04:38;;;;;;;;;;;4.10;99.90;;;;;;5030168;28;19936;-68
2022/01/14 04:07:03;;;;;;;;;;;4.10;99.90;;;;;;5036864;28;19928;-69
2022/01/14 04:09:31;;;;;;;;;;;4.10;99.90;;;;;;5034160;28;19917;-69
2022/01/14 04:12:00;;;;;;;;;;;4.10;99.90;;;;;;5029443;28;20319;-66
2022/01/14 04:16:51;;;;;;;;;;;4.00;99.90;;;;;;5029343;28;20374;-70
2022/01/14 04:19:17;;;;;;;;;;;4.10;99.90;;;;;;5028655;28;19971;-70
2022/01/14 04:21:43;;;;;;;;;;;4.00;99.90;;;;;;5029069;28;19924;-68
2022/01/14 04:24:08;;;;;;;;;;;4.10;99.90;;;;;;5028891;28;19909;-71
2022/01/14 04:26:34;;;;;;;;;;;4.10;99.90;;;;;;5028299;28;19913;-72
2022/01/14 04:28:59;;;;;;;;;;;4.00;99.90;;;;;;5026095;28;20377;-69
2022/01/14 04:31:25;;;;;;;;;;;3.90;99.90;;;;;;5036667;28;20020;-69
2022/01/14 04:33:50;;;;;;;;;;;3.90;99.90;;;;;;5029481;28;19967;-69
2022/01/14 04:36:16;;;;;;;;;;;4.00;99.90;;;;;;5030155;28;20281;-71
2022/01/14 04:38:42;;;;;;;;;;;3.90;99.90;;;;;;5029733;28;20057;-72
2022/01/14 04:41:09;;;;;;;;;;;3.90;99.90;;;;;;5030204;28;20385;-69
2022/01/14 04:43:34;;;;;;;;;;;3.90;99.90;;;;;;5029047;28;19944;-73
2022/01/14 04:48:26;;;;;;;;;;;3.90;99.90;;;;;;5029937;28;20000;-72
2022/01/14 04:50:52;;;;;;;;;;;4.00;99.90;;;;;;5028796;28;19924;-68
2022/01/14 04:53:17;;;;;;;;;;;4.00;99.90;;;;;;5030915;28;19971;-69
2022/01/14 04:55:43;;;;;;;;;;;3.90;99.90;;;;;;5029044;28;19920;-70
2022/01/14 04:58:08;;;;;;;;;;;3.80;99.90;;;;;;5029201;28;20016;-68
2022/01/14 05:00:36;;;;;;;;;;;3.70;99.90;;;;;;5029230;28;20310;-72
2022/01/14 05:03:01;;;;;;;;;;;3.70;99.90;;;;;;5034298;28;20378;-68
2022/01/14 05:05:30;;;;;;;;;;;3.70;99.90;;;;;;5018951;28;19959;-71
2022/01/14 05:07:56;;;;;;;;;;;3.70;99.90;;;;;;5027912;28;19913;-72
2022/01/14 05:10:34;;;;;;;;;;;3.70;99.90;;;;;;5028532;28;19913;-71
2022/01/14 05:13:01;;;;;;;;;;;3.70;99.90;;;;;;5028601;28;19917;-72
2022/01/14 05:15:27;;;;;;;;;;;3.70;99.90;;;;;;5011780;28;19924;-69
2022/01/14 05:17:52;;;;;;;;;;;3.60;99.90;;;;;;5028523;28;19944;-70
2022/01/14 05:20:18;;;;;;;;;;;3.60;99.90;;;;;;5020149;28;20215;-69
2022/01/14 05:22:44;;;;;;;;;;;3.70;99.90;;;;;;5021816;28;19913;-70
2022/01/14 05:25:10;;;;;;;;;;;3.60;99.90;;;;;;5016640;28;19920;-69
2022/01/14 05:27:36;;;;;;;;;;;3.70;99.90;;;;;;5024531;28;19937;-69
2022/01/14 05:30:05;;;;;;;;;;;3.80;99.90;;;;;;5018988;28;19921;-70
2022/01/14 05:32:31;;;;;;;;;;;3.70;99.90;;;;;;5031349;28;20366;-71
2022/01/14 05:34:56;;;;;;;;;;;3.60;99.90;;;;;;5009643;28;19996;-71
2022/01/14 05:37:22;;;;;;;;;;;3.60;99.90;;;;;;5036012;28;19956;-70
2022/01/14 05:39:47;;;;;;;;;;;3.70;99.90;;;;;;5033622;28;20398;-70
2022/01/14 05:42:13;;;;;;;;;;;3.70;99.90;;;;;;5021101;28;20353;-71
2022/01/14 05:44:38;;;;;;;;;;;3.60;99.90;;;;;;5026601;28;19917;-69
2022/01/14 05:47:04;;;;;;;;;;;3.60;99.90;;;;;;5023286;28;19936;-68
2022/01/14 05:49:30;;;;;;;;;;;3.70;99.90;;;;;;5030475;28;19920;-69
2022/01/14 05:51:55;;;;;;;;;;;3.60;99.90;;;;;;5025600;28;20333;-70
2022/01/14 05:54:21;;;;;;;;;;;3.60;99.90;;;;;;5013555;28;19909;-69
2022/01/14 05:56:47;;;;;;;;;;;3.60;99.90;;;;;;5009718;28;19992;-69
2022/01/14 05:59:13;;;;;;;;;;;3.60;99.90;;;;;;5028105;28;19917;-69
2022/01/14 06:01:38;;;;;;;;;;;3.70;99.90;;;;;;5010435;28;19920;-69
2022/01/14 06:04:04;;;;;;;;;;;3.80;99.90;;;;;;5032850;28;20007;-70
2022/01/14 06:06:31;;;;;;;;;;;3.70;99.90;;;;;;5011950;28;20099;-69
2022/01/14 06:08:56;;;;;;;;;;;3.70;99.90;;;;;;5029103;28;19921;-69
2022/01/14 06:11:22;;;;;;;;;;;3.80;99.90;;;;;;5015521;28;19917;-72
2022/01/14 06:13:48;;;;;;;;;;;3.70;99.90;;;;;;5012070;28;19913;-69
2022/01/14 06:16:14;;;;;;;;;;;3.80;99.90;;;;;;5017155;28;19913;-68
2022/01/14 06:18:40;;;;;;;;;;;3.90;99.90;;;;;;5021235;28;19913;-69
2022/01/14 06:21:05;;;;;;;;;;;3.90;99.90;;;;;;5027466;28;20777;-70
2022/01/14 06:23:31;;;;;;;;;;;3.80;99.90;;;;;;5018740;28;19913;-70
2022/01/14 06:25:57;;;;;;;;;;;3.70;99.90;;;;;;5038928;28;20422;-69
2022/01/14 06:28:22;;;;;;;;;;;3.60;99.90;;;;;;5031435;28;19966;-75
2022/01/14 06:30:48;;;;;;;;;;;3.70;99.90;;;;;;5027260;28;19917;-73
2022/01/14 06:33:13;;;;;;;;;;;3.70;99.90;;;;;;5021130;28;19936;-70
2022/01/14 06:35:39;;;;;;;;;;;3.70;99.90;;;;;;5022119;28;20216;-70
2022/01/14 06:38:04;;;;;;;;;;;3.60;99.90;;;;;;5028018;28;20234;-69
2022/01/14 06:40:30;;;;;;;;;;;3.60;99.90;;;;;;5021240;28;20352;-70
2022/01/14 06:42:56;;;;;;;;;;;3.60;99.90;;;;;;5019242;28;19920;-69
2022/01/14 06:45:22;;;;;;;;;;;3.60;99.90;;;;;;5029109;28;20012;-68
2022/01/14 06:47:47;;;;;;;;;;;3.60;99.90;;;;;;5045720;28;19931;-68
2022/01/14 06:50:13;;;;;;;;;;;3.60;99.90;;;;;;5029534;28;19916;-71
2022/01/14 06:52:38;;;;;;;;;;;3.70;99.90;;;;;;5015681;28;19921;-70
2022/01/14 06:55:04;;;;;;;;;;;3.70;99.90;;;;;;5019844;28;19913;-68
2022/01/14 06:57:30;;;;;;;;;;;3.70;99.90;;;;;;5013465;28;19913;-70
2022/01/14 06:59:55;;;;;;;;;;;3.60;99.90;;;;;;5015491;28;20004;-72
2022/01/14 07:02:21;;;;;;;;;;;3.50;99.90;;;;;;5029704;28;20299;-71
2022/01/14 07:04:46;;;;;;;;;;;3.50;99.90;;;;;;5029291;28;19905;-69
2022/01/14 07:07:12;;;;;;;;;;;3.50;99.90;;;;;;5020644;28;19928;-69
2022/01/14 07:09:55;;;;;;;;;;;3.60;99.90;;;;;;5025304;28;19913;-68
2022/01/14 07:12:22;;;;;;;;;;;3.50;99.90;;;;;;5026799;28;19972;-72
2022/01/14 07:14:47;;;;;;;;;;;3.50;99.90;;;;;;5027837;28;19917;-70
2022/01/14 07:17:12;;;;;;;;;;;3.50;99.90;;;;;;5016062;28;19939;-68
2022/01/14 07:19:38;;;;;;;;;;;3.50;99.90;;;;;;5017058;28;20386;-68
2022/01/14 07:22:03;;;;;;;;;;;3.50;99.90;;;;;;5028360;28;19909;-70
2022/01/14 07:24:29;;;;;;;;;;;3.50;99.90;;;;;;5042091;28;19920;-70
2022/01/14 07:26:54;;;;;;;;;;;3.50;99.90;;;;;;5023765;28;20439;-70
2022/01/14 07:29:20;;;;;;;;;;;3.60;99.90;;;;;;5012452;28;19924;-71
2022/01/14 07:31:45;;;;;;;;;;;3.60;99.90;;;;;;5025170;28;19924;-75
2022/01/14 07:34:11;;;;;;;;;;;3.60;99.90;;;;;;5024055;28;20255;-71
2022/01/14 07:36:36;;;;;;;;;;;3.70;99.90;;;;;;5026864;28;20699;-73
2022/01/14 07:39:05;;;;;;;;;;;3.60;99.90;;;;;;5026099;28;19909;-67
2022/01/14 07:41:32;;;;;;;;;;;3.60;99.90;;;;;;5026200;28;20098;-71
2022/01/14 07:43:57;;;;;;;;;;;3.60;99.90;;;;;;5025560;28;19917;-72
2022/01/14 07:46:23;;;;;;;;;;;3.50;99.90;;;;;;5027483;28;19981;-71
2022/01/14 07:48:48;;;;;;;;;;;3.50;99.90;;;;;;5040416;28;20476;-69
2022/01/14 07:51:14;;;;;;;;;;;3.50;99.90;;;;;;5034862;28;20006;-71
2022/01/14 07:53:40;;;;;;;;;;;3.50;99.90;;;;;;5035680;28;19909;-70
2022/01/14 07:56:07;;;;;;;;;;;3.40;99.90;;;;;;5032742;28;19913;-68
2022/01/14 07:58:33;;;;;;;;;;;3.40;99.90;;;;;;5035947;28;19909;-69
2022/01/14 08:00:58;;;;;;;;;;;3.50;99.90;;;;;;5028470;28;19959;-70
2022/01/14 08:03:24;;;;;;;;;;;3.50;99.90;;;;;;5026158;28;19909;-71
2022/01/14 08:05:50;;;;;;;;;;;3.60;99.90;;;;;;5025942;28;19909;-69
2022/01/14 08:08:16;;;;;;;;;;;3.70;99.90;;;;;;5026192;28;20251;-69
2022/01/14 08:10:41;;;;;;;;;;;3.60;99.90;;;;;;5032885;28;19909;-70
2022/01/14 08:13:07;;;;;;;;;;;3.60;99.90;;;;;;5026616;28;19965;-68
2022/01/14 08:15:32;;;;;;;;;;;3.70;99.90;;;;;;5029771;28;19932;-71
2022/01/14 08:18:00;;;;;;;;;;;3.60;99.90;;;;;;5031377;28;19915;-68
2022/01/14 08:20:26;;;;;;;;;;;3.50;99.90;;;;;;5038387;28;19920;-76
2022/01/14 08:22:51;;;;;;;;;;;3.60;99.90;;;;;;5037267;28;19909;-71
2022/01/14 08:25:17;;;;;;;;;;;3.50;99.90;;;;;;5028140;28;19975;-67
2022/01/14 08:27:42;;;;;;;;;;;3.40;99.90;;;;;;5028335;28;19913;-72
2022/01/14 08:30:08;;;;;;;;;;;3.50;99.90;;;;;;5028800;28;19917;-70
2022/01/14 08:32:33;;;;;;;;;;;3.60;99.90;;;;;;5027441;28;19924;-69
2022/01/14 08:34:59;;;;;;;;;;;3.50;99.90;;;;;;5027708;28;20446;-72
2022/01/14 08:37:25;;;;;;;;;;;3.50;99.90;;;;;;5027455;28;20008;-70
2022/01/14 08:39:50;;;;;;;;;;;3.50;99.90;;;;;;5028519;28;19909;-73
2022/01/14 08:42:16;;;;;;;;;;;3.60;99.90;;;;;;5028203;28;19909;-70
2022/01/14 08:44:42;;;;;;;;;;;3.70;99.90;;;;;;5028545;28;19910;-71
2022/01/14 08:47:09;;;;;;;;;;;3.70;99.90;;;;;;5027837;28;20253;-70
2022/01/14 08:49:39;;;;;;;;;;;3.80;99.90;;;;;;5028634;28;19979;-71
2022/01/14 08:52:05;;;;;;;;;;;3.70;99.90;;;;;;5031826;28;19913;-69
2022/01/14 08:54:30;;;;;;;;;;;3.70;99.90;;;;;;5034179;28;19935;-71
2022/01/14 08:56:56;;;;;;;;;;;3.70;99.90;;;;;;5030057;28;20305;-73
2022/01/14 08:59:22;;;;;;;;;;;3.60;99.90;;;;;;5027737;28;19916;-70
2022/01/14 09:01:48;;;;;;;;;;;3.70;99.90;;;;;;5028387;28;19913;-70
2022/01/14 09:04:13;;;;;;;;;;;3.70;99.90;;;;;;5009895;28;20003;-70
2022/01/14 09:06:39;;;;;;;;;;;3.80;99.90;;;;;;5010554;28;19932;-68
2022/01/14 09:09:06;;;;;;;;;;;3.80;99.90;;;;;;5029550;28;19956;-69
2022/01/14 09:11:32;;;;;;;;;;;3.80;99.90;;;;;;5010560;28;20022;-69
2022/01/14 09:13:58;;;;;;;;;;;3.80;99.90;;;;;;5027542;28;19909;-68
2022/01/14 09:16:23;;;;;;;;;;;3.90;99.90;;;;;;5010151;28;19921;-69
2022/01/14 09:18:49;;;;;;;;;;;3.90;99.90;;;;;;5028122;28;19964;-70
2022/01/14 09:21:15;;;;;;;;;;;3.90;99.90;;;;;;5028621;28;19983;-68
2022/01/14 09:23:43;;;;;;;;;;;3.80;99.90;;;;;;5028704;28;20183;-70
2022/01/14 09:26:08;;;;;;;;;;;3.80;99.90;;;;;;5029291;28;20248;-74
2022/01/14 09:28:34;;;;;;;;;;;3.90;99.90;;;;;;5030868;28;19913;-73
2022/01/14 09:31:00;;;;;;;;;;;4.00;99.90;;;;;;5033757;28;19917;-71
2022/01/14 09:33:25;;;;;;;;;;;4.00;99.90;;;;;;5012640;28;20282;-70
2022/01/14 09:35:51;;;;;;;;;;;3.90;99.90;;;;;;5028305;28;19913;-71
2022/01/14 09:38:17;;;;;;;;;;;4.00;99.90;;;;;;5028043;28;19920;-71
2022/01/14 09:40:43;;;;;;;;;;;4.00;99.90;;;;;;5026799;28;19913;-70
2022/01/14 09:43:12;;;;;;;;;;;4.10;99.90;;;;;;5025965;28;19992;-71
2022/01/14 09:45:37;;;;;;;;;;;4.10;99.90;;;;;;5027394;28;19909;-72
2022/01/14 09:48:03;;;;;;;;;;;4.00;99.90;;;;;;5029006;28;19916;-70
2022/01/14 09:50:28;;;;;;;;;;;4.10;99.90;;;;;;5028144;28;19983;-69
2022/01/14 09:52:54;;;;;;;;;;;4.00;99.90;;;;;;5026981;28;20012;-70
2022/01/14 09:55:21;;;;;;;;;;;4.10;99.90;;;;;;5025280;28;19975;-72
2022/01/14 09:57:47;;;;;;;;;;;4.20;99.90;;;;;;5025462;28;19981;-71
2022/01/14 10:00:13;;;;;;;;;;;4.30;99.90;;;;;;5025509;28;19966;-70
2022/01/14 10:02:40;;;;;;;;;;;4.20;99.90;;;;;;5026525;28;19944;-70
2022/01/14 10:05:26;;;;;;;;;;;4.30;99.90;;;;;;5021380;28;19909;-71
2022/01/14 10:08:05;;;;;;;;;;;4.30;99.90;;;;;;5025246;28;19920;-70
2022/01/14 10:10:33;;;;;;;;;;;4.40;99.90;;;;;;5025118;28;20362;-71
2022/01/14 10:13:09;;;;;;;;;;;4.40;99.90;;;;;;5026261;28;20000;-70
2022/01/14 10:15:41;;;;;;;;;;;4.50;99.90;;;;;;5026137;28;19913;-73
2022/01/14 10:18:07;;;;;;;;;;;4.30;99.90;;;;;;5025842;28;20106;-70
2022/01/14 10:20:36;;;;;;;;;;;4.50;99.90;;;;;;5025637;28;19913;-70
2022/01/14 10:23:02;;;;;;;;;;;4.50;99.90;;;;;;5028345;28;19909;-69
2022/01/14 10:25:27;;;;;;;;;;;4.60;99.90;;;;;;5028813;28;19916;-71
2022/01/14 10:27:54;;;;;;;;;;;4.50;99.90;;;;;;5026999;28;20009;-72
2022/01/14 10:30:23;;;;;;;;;;;4.60;99.90;;;;;;5041388;28;19916;-71
2022/01/14 10:32:56;;;;;;;;;;;4.60;99.90;;;;;;5018829;28;19992;-70
2022/01/14 10:35:23;;;;;;;;;;;4.80;99.90;;;;;;5025700;28;19909;-69
2022/01/14 10:37:48;;;;;;;;;;;4.80;99.90;;;;;;5035563;28;19916;-70
2022/01/14 10:40:18;;;;;;;;;;;4.60;99.90;;;;;;5045446;28;19909;-71
2022/01/14 10:42:45;;;;;;;;;;;4.60;99.90;;;;;;5046015;28;19908;-70
2022/01/14 10:45:17;;;;;;;;;;;4.60;99.90;;;;;;5046316;28;20274;-71
2022/01/14 10:47:49;;;;;;;;;;;4.50;99.90;;;;;;5045132;28;19913;-70
2022/01/14 10:50:15;;;;;;;;;;;4.60;99.90;;;;;;5045552;28;19915;-70
2022/01/14 10:52:40;;;;;;;;;;;4.50;99.90;;;;;;5030489;28;20404;-70
2022/01/14 10:55:06;;;;;;;;;;;4.60;99.90;;;;;;5059144;28;19935;-71
2022/01/14 10:57:32;;;;;;;;;;;4.70;99.90;;;;;;5049859;28;20108;-70
2022/01/14 11:00:19;;;;;;;;;;;4.80;99.90;;;;;;5044718;28;19944;-71
2022/01/14 11:02:52;;;;;;;;;;;4.90;99.90;;;;;;5044121;28;20219;-70
2022/01/14 11:05:19;;;;;;;;;;;5.00;99.90;;;;;;5018634;28;20017;-69
2022/01/14 11:07:46;;;;;;;;;;;5.00;99.90;;;;;;5023790;28;19988;-71
2022/01/14 11:10:15;;;;;;;;;;;5.10;99.90;;;;;;5024554;28;19909;-69
2022/01/14 11:12:41;;;;;;;;;;;5.10;99.90;;;;;;5029940;28;19936;-70
2022/01/14 11:15:07;;;;;;;;;;;5.10;99.90;;;;;;5025152;28;20447;-71
2022/01/14 11:17:35;;;;;;;;;;;5.10;99.90;;;;;;5025775;28;20194;-71
2022/01/14 11:20:02;;;;;;;;;;;5.10;99.90;;;;;;5025057;28;19952;-70
2022/01/14 11:25:12;;;;;;;;;;;5.10;99.90;;;;;;5024813;28;19919;-69
2022/01/14 11:27:38;;;;;;;;;;;5.00;99.90;;;;;;5024668;28;19916;-69
2022/01/14 11:30:03;;;;;;;;;;;5.10;99.90;;;;;;5027404;28;19917;-70
2022/01/14 11:32:49;;;;;;;;;;;5.20;99.90;;;;;;5015888;28;19924;-70
2022/01/14 11:35:25;;;;;;;;;;;5.10;99.90;;;;;;5031868;28;19978;-70
2022/01/14 11:37:53;;;;;;;;;;;5.30;99.90;;;;;;5024673;28;20297;-69
2022/01/14 11:40:19;;;;;;;;;;;5.30;99.90;;;;;;5025502;28;20180;-69
2022/01/14 11:42:45;;;;;;;;;;;5.30;99.90;;;;;;5024925;28;19909;-68
2022/01/14 11:45:11;;;;;;;;;;;5.30;99.90;;;;;;5006360;28;19917;-73
2022/01/14 11:47:40;;;;;;;;;;;5.30;99.90;;;;;;5026072;28;19913;-70
2022/01/14 11:50:06;;;;;;;;;;;5.40;99.90;;;;;;5029168;28;19909;-70
2022/01/14 11:52:36;;;;;;;;;;;5.40;99.90;;;;;;5011813;28;20000;-70
2022/01/14 11:55:02;;;;;;;;;;;5.40;99.90;;;;;;5028855;28;19956;-69
2022/01/14 11:57:42;;;;;;;;;;;5.50;99.90;;;;;;5028478;28;20409;-69
2022/01/14 12:00:23;;;;;;;;;;;5.50;99.90;;;;;;5027504;28;20115;-69
2022/01/14 12:02:48;;;;;;;;;;;5.50;99.90;;;;;;5028794;28;20365;-69
2022/01/14 12:05:15;;;;;;;;;;;5.50;99.90;;;;;;5028808;28;20025;-69
2022/01/14 12:07:59;;;;;;;;;;;5.60;99.90;;;;;;5027820;28;19988;-69
2022/01/14 12:10:29;;;;;;;;;;;5.50;99.90;;;;;;5028804;28;20345;-68
2022/01/14 12:13:14;;;;;;;;;;;5.60;99.90;;;;;;5030200;28;19917;-67
2022/01/14 12:15:51;;;;;;;;;;;5.50;99.90;;;;;;5030648;28;20402;-69
2022/01/14 12:18:16;;;;;;;;;;;5.60;99.90;;;;;;5035889;28;20374;-71
2022/01/14 12:20:48;;;;;;;;;;;5.70;99.90;;;;;;5030446;28;19957;-71
2022/01/14 12:23:17;;;;;;;;;;;5.60;99.90;;;;;;5012435;28;19916;-70
2022/01/14 12:25:43;;;;;;;;;;;5.60;99.90;;;;;;5028677;28;20319;-70
2022/01/14 12:28:16;;;;;;;;;;;5.70;99.90;;;;;;5028819;28;19909;-69
2022/01/14 12:30:55;;;;;;;;;;;5.80;99.90;;;;;;5027765;28;19994;-70
2022/01/14 12:33:37;;;;;;;;;;;5.80;99.90;;;;;;5029690;28;19936;-70
2022/01/14 12:36:13;;;;;;;;;;;5.80;99.90;;;;;;5028863;28;20385;-72
2022/01/14 12:38:40;;;;;;;;;;;5.70;99.90;;;;;;5028445;28;19915;-70
2022/01/14 12:41:19;;;;;;;;;;;5.80;99.90;;;;;;5027173;28;20194;-70
2022/01/14 12:43:49;;;;;;;;;;;5.80;99.90;;;;;;5027656;28;20348;-71
2022/01/14 12:46:41;;;;;;;;;;;5.90;99.90;;;;;;5028925;28;20397;-73
2022/01/14 12:49:08;;;;;;;;;;;5.80;99.90;;;;;;5027920;28;20014;-70
2022/01/14 12:51:33;;;;;;;;;;;5.80;99.90;;;;;;5025638;28;20310;-69
2022/01/14 12:54:01;;;;;;;;;;;5.90;99.90;;;;;;5027428;28;19909;-69
2022/01/14 12:56:28;;;;;;;;;;;6.00;99.90;;;;;;5028638;28;20388;-72
2022/01/14 12:59:00;;;;;;;;;;;5.90;99.90;;;;;;5028210;28;19917;-71
2022/01/14 13:01:39;;;;;;;;;;;6.00;99.90;;;;;;5028607;28;19932;-71
2022/01/14 13:04:08;;;;;;;;;;;6.00;99.90;;;;;;5028451;28;19945;-71
2022/01/14 13:07:03;;;;;;;;;;;6.10;99.90;;;;;;5013019;28;20000;-71
2022/01/14 13:09:31;;;;;;;;;;;6.10;99.90;;;;;;5014621;28;19913;-70
2022/01/14 13:11:59;;;;;;;;;;;6.00;99.90;;;;;;5027363;28;19917;-71
2022/01/14 13:14:26;;;;;;;;;;;6.00;99.90;;;;;;5028887;28;20397;-69
2022/01/14 13:16:52;;;;;;;;;;;6.20;99.90;;;;;;5028882;28;19913;-71
2022/01/14 13:19:27;;;;;;;;;;;6.30;99.90;;;;;;5028517;28;19913;-70
2022/01/14 13:21:53;;;;;;;;;;;6.30;99.90;;;;;;5029923;28;19928;-71
2022/01/14 13:24:24;;;;;;;;;;;6.30;99.90;;;;;;5030967;28;19909;-69
2022/01/14 13:26:58;;;;;;;;;;;6.30;99.90;;;;;;5042162;28;19909;-68
2022/01/14 13:29:23;;;;;;;;;;;6.40;99.90;;;;;;5032716;28;19914;-71
2022/01/14 13:31:49;;;;;;;;;;;6.40;99.90;;;;;;5035328;28;19967;-69
2022/01/14 13:34:15;;;;;;;;;;;6.50;99.90;;;;;;5035355;28;19913;-70
2022/01/14 13:36:40;;;;;;;;;;;6.60;99.90;;;;;;5010793;28;19920;-68
2022/01/14 13:39:10;;;;;;;;;;;6.60;99.90;;;;;;5034847;28;20401;-71
2022/01/14 13:41:39;;;;;;;;;;;6.60;99.90;;;;;;5029687;28;20321;-69
2022/01/14 13:44:17;;;;;;;;;;;6.70;99.90;;;;;;5027018;28;19916;-71
2022/01/14 13:46:49;;;;;;;;;;;6.60;99.90;;;;;;5027372;28;20027;-70
2022/01/14 13:49:20;;;;;;;;;;;6.60;99.90;;;;;;5026392;28;19921;-70
2022/01/14 13:51:59;;;;;;;;;;;6.60;99.90;;;;;;5026797;28;20391;-72
2022/01/14 13:54:24;;;;;;;;;;;6.60;99.90;;;;;;5028530;28;19916;-69
2022/01/14 13:56:50;;;;;;;;;;;6.40;99.90;;;;;;5010438;28;19973;-70
2022/01/14 13:59:19;;;;;;;;;;;6.40;99.90;;;;;;5009352;28;19913;-70
2022/01/14 14:01:58;;;;;;;;;;;6.50;99.90;;;;;;5008930;28;19917;-70
2022/01/14 14:04:30;;;;;;;;;;;6.50;99.90;;;;;;5026628;28;19916;-70
2022/01/14 14:07:09;;;;;;;;;;;6.70;99.90;;;;;;5008797;28;19909;-70
2022/01/14 14:09:46;;;;;;;;;;;6.60;99.90;;;;;;5026515;28;19924;-69
2022/01/14 14:17:39;;;;;;;;;;;6.60;99.90;;;;;;5027333;28;19916;-70
2022/01/14 14:20:06;;;;;;;;;;;6.70;99.90;;;;;;5025679;28;19909;-70
2022/01/14 14:22:34;;;;;;;;;;;6.70;99.90;;;;;;5026385;28;19924;-71
2022/01/14 14:25:13;;;;;;;;;;;6.70;99.90;;;;;;5026136;28;19909;-71
2022/01/14 14:27:40;;;;;;;;;;;6.60;99.90;;;;;;5026645;28;19917;-70
2022/01/14 14:30:10;;;;;;;;;;;6.70;99.90;;;;;;5036338;28;19917;-70
2022/01/14 14:32:37;;;;;;;;;;;6.80;99.90;;;;;;5037939;28;20371;-70
2022/01/14 14:35:16;;;;;;;;;;;6.80;99.90;;;;;;5025906;28;19916;-71
2022/01/14 14:37:46;;;;;;;;;;;6.90;99.90;;;;;;5044535;28;19913;-71
2022/01/14 14:40:15;;;;;;;;;;;7.00;99.90;;;;;;5046240;28;19909;-70
2022/01/14 14:42:41;;;;;;;;;;;6.90;99.90;;;;;;5046716;28;20003;-70
2022/01/14 14:45:07;;;;;;;;;;;6.80;99.90;;;;;;5029158;28;20043;-75
2022/01/14 14:47:32;;;;;;;;;;;6.80;99.90;;;;;;5029617;28;20536;-71
2022/01/14 14:49:57;;;;;;;;;;;6.70;99.90;;;;;;5048047;28;19913;-70
2022/01/14 14:52:23;;;;;;;;;;;6.90;99.90;;;;;;5030761;28;19912;-70
2022/01/14 14:54:49;;;;;;;;;;;6.90;99.90;;;;;;5034123;28;20020;-71
2022/01/14 14:57:14;;;;;;;;;;;6.90;99.90;;;;;;5052023;28;19909;-69
2022/01/14 14:59:40;;;;;;;;;;;6.90;99.90;;;;;;5036070;28;20107;-69
2022/01/14 15:02:07;;;;;;;;;;;6.80;99.90;;;;;;5052756;28;20000;-71
2022/01/14 15:04:34;;;;;;;;;;;6.70;99.90;;;;;;5027815;28;19912;-70